sensor_id;sensor_type;location;lat;lon;timestamp;P1;P2;P0
65360;PMS5003;51958;55.018;73.536;2023-09-08T00:02:36;32.00;27.00;17.33
65360;PMS5003;51958;55.018;73.536;2023-09-08T00:05:37;33.00;26.00;17.00
65360;PMS5003;51958;55.018;73.536;2023-09-08T00:08:39;32.00;26.00;17.00
65360;PMS5003;51958;55.018;73.536;2023-09-08T00:11:40;35.00;28.00;16.33
65360;PMS5003;51958;55.018;73.536;2023-09-08T00:14:41;33.00;27.00;16.33
65360;PMS5003;51958;55.018;73.536;2023-09-08T00:17:42;32.00;26.00;17.33
65360;PMS5003;51958;55.018;73.536;2023-09-08T00:20:43;30.00;26.00;17.67
65360;PMS5003;51958;55.018;73.536;2023-09-08T00:23:44;29.33;25.00;17.00
65360;PMS5003;51958;55.018;73.536;2023-09-08T00:26:45;32.00;25.33;16.67
65360;PMS5003;51958;55.018;73.536;2023-09-08T00:29:47;32.67;25.33;16.33
65360;PMS5003;51958;55.018;73.536;2023-09-08T00:32:48;31.67;26.00;16.33
65360;PMS5003;51958;55.018;73.536;2023-09-08T00:35:49;29.00;24.67;16.00
65360;PMS5003;51958;55.018;73.536;2023-09-08T00:38:50;28.33;24.00;16.00
65360;PMS5003;51958;55.018;73.536;2023-09-08T00:41:51;29.67;25.33;16.00
65360;PMS5003;51958;55.018;73.536;2023-09-08T00:44:52;26.00;22.00;16.00
65360;PMS5003;51958;55.018;73.536;2023-09-08T00:47:55;22.00;17.00;12.00
65360;PMS5003;51958;55.018;73.536;2023-09-08T00:50:56;17.33;15.00;8.00
65360;PMS5003;51958;55.018;73.536;2023-09-08T00:53:58;16.67;16.00;6.33
65360;PMS5003;51958;55.018;73.536;2023-09-08T00:56:59;14.00;14.00;5.33
65360;PMS5003;51958;55.018;73.536;2023-09-08T01:00:03;14.33;13.00;6.00
65360;PMS5003;51958;55.018;73.536;2023-09-08T01:03:07;18.33;16.00;6.67
65360;PMS5003;51958;55.018;73.536;2023-09-08T01:06:08;19.33;17.67;9.00
65360;PMS5003;51958;55.018;73.536;2023-09-08T01:09:09;20.00;17.67;7.00
65360;PMS5003;51958;55.018;73.536;2023-09-08T01:12:10;19.00;17.00;8.00
65360;PMS5003;51958;55.018;73.536;2023-09-08T01:15:11;17.33;17.00;7.00
65360;PMS5003;51958;55.018;73.536;2023-09-08T01:18:14;17.00;17.00;8.00
65360;PMS5003;51958;55.018;73.536;2023-09-08T01:24:38;18.00;17.00;8.00
65360;PMS5003;51958;55.018;73.536;2023-09-08T01:27:43;17.00;17.00;8.00
65360;PMS5003;51958;55.018;73.536;2023-09-08T01:30:48;18.00;17.00;8.00
65360;PMS5003;51958;55.018;73.536;2023-09-08T01:33:49;17.33;17.00;7.00
65360;PMS5003;51958;55.018;73.536;2023-09-08T01:36:51;17.00;16.00;6.00
65360;PMS5003;51958;55.018;73.536;2023-09-08T01:39:52;18.00;16.00;6.67
65360;PMS5003;51958;55.018;73.536;2023-09-08T01:42:54;17.33;15.00;6.00
65360;PMS5003;51958;55.018;73.536;2023-09-08T01:45:57;18.00;15.00;7.00
65360;PMS5003;51958;55.018;73.536;2023-09-08T01:48:58;17.67;15.00;7.00
65360;PMS5003;51958;55.018;73.536;2023-09-08T01:51:59;18.33;17.00;7.00
65360;PMS5003;51958;55.018;73.536;2023-09-08T01:55:01;17.00;16.25;7.00
65360;PMS5003;51958;55.018;73.536;2023-09-08T01:58:04;18.75;17.00;8.00
65360;PMS5003;51958;55.018;73.536;2023-09-08T02:01:06;19.00;19.00;9.00
65360;PMS5003;51958;55.018;73.536;2023-09-08T02:04:06;17.00;17.00;8.00
65360;PMS5003;51958;55.018;73.536;2023-09-08T02:07:12;18.33;17.00;8.00
65360;PMS5003;51958;55.018;73.536;2023-09-08T02:10:17;18.00;18.00;9.00
65360;PMS5003;51958;55.018;73.536;2023-09-08T02:13:21;20.25;17.25;9.00
65360;PMS5003;51958;55.018;73.536;2023-09-08T02:16:22;18.00;16.00;7.00
65360;PMS5003;51958;55.018;73.536;2023-09-08T02:19:25;18.75;16.00;6.00
65360;PMS5003;51958;55.018;73.536;2023-09-08T02:22:26;18.00;18.00;6.00
65360;PMS5003;51958;55.018;73.536;2023-09-08T02:25:28;18.00;16.25;6.25
65360;PMS5003;51958;55.018;73.536;2023-09-08T02:28:29;15.00;14.00;5.00
65360;PMS5003;51958;55.018;73.536;2023-09-08T02:31:31;15.00;13.00;5.50
65360;PMS5003;51958;55.018;73.536;2023-09-08T02:34:35;13.75;11.75;5.00
65360;PMS5003;51958;55.018;73.536;2023-09-08T02:37:42;13.33;11.00;4.00
65360;PMS5003;51958;55.018;73.536;2023-09-08T02:40:44;14.25;10.00;5.00
65360;PMS5003;51958;55.018;73.536;2023-09-08T02:43:48;13.50;9.75;6.00
65360;PMS5003;51958;55.018;73.536;2023-09-08T02:46:50;15.00;11.00;6.00
65360;PMS5003;51958;55.018;73.536;2023-09-08T02:49:51;14.00;11.50;6.50
65360;PMS5003;51958;55.018;73.536;2023-09-08T02:52:52;13.50;10.50;6.00
65360;PMS5003;51958;55.018;73.536;2023-09-08T02:55:59;13.00;10.00;6.00
65360;PMS5003;51958;55.018;73.536;2023-09-08T02:59:01;10.00;9.00;6.00
65360;PMS5003;51958;55.018;73.536;2023-09-08T03:02:02;8.00;8.00;6.00
65360;PMS5003;51958;55.018;73.536;2023-09-08T03:05:03;8.00;7.00;3.00
65360;PMS5003;51958;55.018;73.536;2023-09-08T03:08:06;8.00;8.00;5.00
65360;PMS5003;51958;55.018;73.536;2023-09-08T03:11:07;9.00;8.00;5.00
65360;PMS5003;51958;55.018;73.536;2023-09-08T03:14:09;9.00;8.00;5.00
65360;PMS5003;51958;55.018;73.536;2023-09-08T03:17:11;7.00;6.50;2.00
65360;PMS5003;51958;55.018;73.536;2023-09-08T03:20:12;7.00;7.00;3.00
65360;PMS5003;51958;55.018;73.536;2023-09-08T03:23:15;7.25;6.75;3.00
65360;PMS5003;51958;55.018;73.536;2023-09-08T03:26:16;15.50;15.00;8.25
65360;PMS5003;51958;55.018;73.536;2023-09-08T03:29:17;16.00;16.00;7.00
65360;PMS5003;51958;55.018;73.536;2023-09-08T03:32:18;17.00;17.00;7.00
65360;PMS5003;51958;55.018;73.536;2023-09-08T03:35:19;11.50;9.75;4.00
65360;PMS5003;51958;55.018;73.536;2023-09-08T03:38:21;8.00;8.00;4.00
65360;PMS5003;51958;55.018;73.536;2023-09-08T03:41:22;7.00;6.00;4.00
65360;PMS5003;51958;55.018;73.536;2023-09-08T03:44:23;8.00;8.00;4.00
65360;PMS5003;51958;55.018;73.536;2023-09-08T03:47:24;9.00;9.00;4.00
65360;PMS5003;51958;55.018;73.536;2023-09-08T03:50:25;7.00;7.00;4.00
65360;PMS5003;51958;55.018;73.536;2023-09-08T03:53:27;7.00;7.00;3.50
65360;PMS5003;51958;55.018;73.536;2023-09-08T03:56:28;6.25;6.25;3.00
65360;PMS5003;51958;55.018;73.536;2023-09-08T03:59:29;7.50;7.00;2.00
65360;PMS5003;51958;55.018;73.536;2023-09-08T04:02:30;8.00;8.00;4.25
65360;PMS5003;51958;55.018;73.536;2023-09-08T04:05:31;8.50;8.00;4.00
65360;PMS5003;51958;55.018;73.536;2023-09-08T04:08:33;8.00;6.75;3.00
65360;PMS5003;51958;55.018;73.536;2023-09-08T04:11:34;6.00;5.00;2.00
65360;PMS5003;51958;55.018;73.536;2023-09-08T04:14:35;6.50;6.00;2.25
65360;PMS5003;51958;55.018;73.536;2023-09-08T04:17:37;7.00;7.00;3.00
65360;PMS5003;51958;55.018;73.536;2023-09-08T04:20:39;6.00;6.00;2.00
65360;PMS5003;51958;55.018;73.536;2023-09-08T04:23:40;7.50;7.50;2.00
65360;PMS5003;51958;55.018;73.536;2023-09-08T04:26:41;4.00;4.00;2.00
65360;PMS5003;51958;55.018;73.536;2023-09-08T04:29:43;8.00;5.00;1.00
65360;PMS5003;51958;55.018;73.536;2023-09-08T04:32:45;6.50;6.00;3.00
65360;PMS5003;51958;55.018;73.536;2023-09-08T04:35:46;6.00;5.00;2.00
65360;PMS5003;51958;55.018;73.536;2023-09-08T04:38:47;5.25;5.00;3.00
65360;PMS5003;51958;55.018;73.536;2023-09-08T04:41:48;6.75;6.75;2.75
65360;PMS5003;51958;55.018;73.536;2023-09-08T04:44:49;7.00;7.00;4.00
65360;PMS5003;51958;55.018;73.536;2023-09-08T04:47:50;7.20;6.00;5.00
65360;PMS5003;51958;55.018;73.536;2023-09-08T04:50:53;9.00;8.00;5.00
65360;PMS5003;51958;55.018;73.536;2023-09-08T04:53:54;6.00;5.00;1.00
65360;PMS5003;51958;55.018;73.536;2023-09-08T04:56:55;3.00;3.00;1.00
65360;PMS5003;51958;55.018;73.536;2023-09-08T04:59:57;3.00;2.67;1.00
65360;PMS5003;51958;55.018;73.536;2023-09-08T05:02:58;4.00;4.00;1.00
65360;PMS5003;51958;55.018;73.536;2023-09-08T05:05:59;3.00;3.00;1.00
65360;PMS5003;51958;55.018;73.536;2023-09-08T05:09:02;3.00;3.00;1.00
65360;PMS5003;51958;55.018;73.536;2023-09-08T05:12:05;2.50;2.50;1.00
65360;PMS5003;51958;55.018;73.536;2023-09-08T05:15:08;2.00;2.00;1.00
65360;PMS5003;51958;55.018;73.536;2023-09-08T05:18:17;1.67;1.00;1.00
65360;PMS5003;51958;55.018;73.536;2023-09-08T05:21:18;1.00;0.00;0.00
65360;PMS5003;51958;55.018;73.536;2023-09-08T05:24:20;1.00;0.00;0.00
65360;PMS5003;51958;55.018;73.536;2023-09-08T05:27:22;1.00;0.00;0.00
65360;PMS5003;51958;55.018;73.536;2023-09-08T05:30:23;1.00;1.00;0.00
65360;PMS5003;51958;55.018;73.536;2023-09-08T05:33:24;0.00;0.00;0.00
65360;PMS5003;51958;55.018;73.536;2023-09-08T05:36:27;1.00;1.00;0.00
65360;PMS5003;51958;55.018;73.536;2023-09-08T05:39:30;1.00;1.00;0.00
65360;PMS5003;51958;55.018;73.536;2023-09-08T05:42:33;2.00;2.00;0.00
65360;PMS5003;51958;55.018;73.536;2023-09-08T05:45:34;1.00;1.00;0.00
65360;PMS5003;51958;55.018;73.536;2023-09-08T05:48:36;0.67;0.67;0.00
65360;PMS5003;51958;55.018;73.536;2023-09-08T05:51:38;2.00;2.00;0.00
65360;PMS5003;51958;55.018;73.536;2023-09-08T05:54:39;2.75;2.50;0.00
65360;PMS5003;51958;55.018;73.536;2023-09-08T05:57:41;2.00;1.50;0.00
65360;PMS5003;51958;55.018;73.536;2023-09-08T06:00:42;1.00;1.00;0.00
65360;PMS5003;51958;55.018;73.536;2023-09-08T06:03:43;1.50;1.25;0.00
65360;PMS5003;51958;55.018;73.536;2023-09-08T06:06:44;0.75;0.75;0.00
65360;PMS5003;51958;55.018;73.536;2023-09-08T06:09:45;1.50;0.00;0.00
65360;PMS5003;51958;55.018;73.536;2023-09-08T06:12:46;2.00;0.25;0.00
65360;PMS5003;51958;55.018;73.536;2023-09-08T06:15:47;2.00;1.00;0.00
65360;PMS5003;51958;55.018;73.536;2023-09-08T06:18:49;1.00;1.00;0.00
65360;PMS5003;51958;55.018;73.536;2023-09-08T06:21:53;2.00;2.00;0.00
65360;PMS5003;51958;55.018;73.536;2023-09-08T06:24:55;1.50;1.00;0.00
65360;PMS5003;51958;55.018;73.536;2023-09-08T06:27:58;2.00;0.00;0.00
65360;PMS5003;51958;55.018;73.536;2023-09-08T06:30:59;1.00;1.00;0.00
65360;PMS5003;51958;55.018;73.536;2023-09-08T06:34:00;1.00;0.00;0.00
65360;PMS5003;51958;55.018;73.536;2023-09-08T06:37:02;1.00;0.00;0.00
65360;PMS5003;51958;55.018;73.536;2023-09-08T06:40:04;1.00;0.00;0.00
65360;PMS5003;51958;55.018;73.536;2023-09-08T06:43:06;1.00;1.00;0.00
65360;PMS5003;51958;55.018;73.536;2023-09-08T06:46:18;1.00;0.75;0.00
65360;PMS5003;51958;55.018;73.536;2023-09-08T06:49:20;0.00;0.00;0.00
65360;PMS5003;51958;55.018;73.536;2023-09-08T06:52:21;1.75;1.50;0.00
65360;PMS5003;51958;55.018;73.536;2023-09-08T06:55:22;2.00;2.00;0.00
65360;PMS5003;51958;55.018;73.536;2023-09-08T06:58:23;2.25;2.00;0.00
65360;PMS5003;51958;55.018;73.536;2023-09-08T07:01:25;2.00;2.00;0.00
65360;PMS5003;51958;55.018;73.536;2023-09-08T07:04:26;1.00;1.00;0.00
65360;PMS5003;51958;55.018;73.536;2023-09-08T07:07:28;1.00;0.50;0.00
65360;PMS5003;51958;55.018;73.536;2023-09-08T07:10:30;1.00;1.00;0.00
65360;PMS5003;51958;55.018;73.536;2023-09-08T07:13:31;1.00;0.00;0.00
65360;PMS5003;51958;55.018;73.536;2023-09-08T07:16:33;1.00;0.00;0.00
65360;PMS5003;51958;55.018;73.536;2023-09-08T07:19:34;1.00;0.25;0.00
65360;PMS5003;51958;55.018;73.536;2023-09-08T07:22:35;1.00;1.00;0.00
65360;PMS5003;51958;55.018;73.536;2023-09-08T07:25:36;1.00;1.00;0.00
65360;PMS5003;51958;55.018;73.536;2023-09-08T07:28:37;3.00;3.00;0.00
65360;PMS5003;51958;55.018;73.536;2023-09-08T07:31:42;4.00;4.00;0.00
65360;PMS5003;51958;55.018;73.536;2023-09-08T07:34:43;2.00;2.00;0.00
65360;PMS5003;51958;55.018;73.536;2023-09-08T07:37:45;1.50;1.50;0.00
65360;PMS5003;51958;55.018;73.536;2023-09-08T07:40:47;1.00;1.00;0.00
65360;PMS5003;51958;55.018;73.536;2023-09-08T07:43:48;1.50;1.50;0.00
65360;PMS5003;51958;55.018;73.536;2023-09-08T07:46:56;1.00;1.00;0.00
65360;PMS5003;51958;55.018;73.536;2023-09-08T07:50:16;0.00;0.00;0.00
65360;PMS5003;51958;55.018;73.536;2023-09-08T07:53:17;0.00;0.00;0.00
65360;PMS5003;51958;55.018;73.536;2023-09-08T07:56:18;1.00;1.00;0.00
65360;PMS5003;51958;55.018;73.536;2023-09-08T07:59:19;1.75;1.00;0.00
65360;PMS5003;51958;55.018;73.536;2023-09-08T08:02:20;1.33;1.00;0.00
65360;PMS5003;51958;55.018;73.536;2023-09-08T08:05:21;2.00;1.00;0.00
65360;PMS5003;51958;55.018;73.536;2023-09-08T08:08:23;2.00;1.00;0.00
65360;PMS5003;51958;55.018;73.536;2023-09-08T08:11:24;1.00;0.00;0.00
65360;PMS5003;51958;55.018;73.536;2023-09-08T08:14:26;1.25;0.25;0.00
65360;PMS5003;51958;55.018;73.536;2023-09-08T08:17:27;0.00;0.00;0.00
65360;PMS5003;51958;55.018;73.536;2023-09-08T08:20:31;1.33;0.00;0.00
65360;PMS5003;51958;55.018;73.536;2023-09-08T08:23:36;2.00;0.00;0.00
65360;PMS5003;51958;55.018;73.536;2023-09-08T08:26:39;2.00;0.00;0.00
65360;PMS5003;51958;55.018;73.536;2023-09-08T08:29:43;2.00;0.00;0.00
65360;PMS5003;51958;55.018;73.536;2023-09-08T08:32:44;2.00;1.00;0.00
65360;PMS5003;51958;55.018;73.536;2023-09-08T08:35:52;1.00;1.00;0.00
65360;PMS5003;51958;55.018;73.536;2023-09-08T08:38:54;2.00;2.00;0.00
65360;PMS5003;51958;55.018;73.536;2023-09-08T08:41:55;2.00;2.00;0.00
65360;PMS5003;51958;55.018;73.536;2023-09-08T08:44:57;3.00;2.50;0.00
65360;PMS5003;51958;55.018;73.536;2023-09-08T08:48:19;1.00;1.00;0.00
65360;PMS5003;51958;55.018;73.536;2023-09-08T08:51:22;2.00;2.00;0.00
65360;PMS5003;51958;55.018;73.536;2023-09-08T08:54:40;1.00;1.00;0.00
65360;PMS5003;51958;55.018;73.536;2023-09-08T08:57:41;2.25;2.00;0.00
65360;PMS5003;51958;55.018;73.536;2023-09-08T09:00:42;4.00;4.00;0.00
65360;PMS5003;51958;55.018;73.536;2023-09-08T09:03:45;4.75;4.00;0.00
65360;PMS5003;51958;55.018;73.536;2023-09-08T09:06:48;3.00;3.00;0.00
65360;PMS5003;51958;55.018;73.536;2023-09-08T09:09:50;2.00;2.00;0.00
65360;PMS5003;51958;55.018;73.536;2023-09-08T09:12:51;3.00;3.00;0.00
65360;PMS5003;51958;55.018;73.536;2023-09-08T09:15:53;3.00;2.00;0.00
65360;PMS5003;51958;55.018;73.536;2023-09-08T09:18:59;3.00;2.00;0.00
65360;PMS5003;51958;55.018;73.536;2023-09-08T09:22:00;2.33;2.00;0.00
65360;PMS5003;51958;55.018;73.536;2023-09-08T09:25:01;1.00;1.00;0.00
65360;PMS5003;51958;55.018;73.536;2023-09-08T09:28:06;1.00;1.00;0.00
65360;PMS5003;51958;55.018;73.536;2023-09-08T09:31:08;2.00;1.00;0.00
65360;PMS5003;51958;55.018;73.536;2023-09-08T09:34:09;1.00;1.00;0.00
65360;PMS5003;51958;55.018;73.536;2023-09-08T09:37:10;1.00;1.00;0.00
65360;PMS5003;51958;55.018;73.536;2023-09-08T09:40:11;1.00;1.00;0.00
65360;PMS5003;51958;55.018;73.536;2023-09-08T09:43:13;1.00;1.00;0.00
65360;PMS5003;51958;55.018;73.536;2023-09-08T09:46:14;1.00;1.00;0.00
65360;PMS5003;51958;55.018;73.536;2023-09-08T09:49:16;1.00;1.00;0.00
65360;PMS5003;51958;55.018;73.536;2023-09-08T09:52:21;0.00;0.00;0.00
65360;PMS5003;51958;55.018;73.536;2023-09-08T09:55:32;1.00;0.00;0.00
65360;PMS5003;51958;55.018;73.536;2023-09-08T09:58:34;0.00;0.00;0.00
65360;PMS5003;51958;55.018;73.536;2023-09-08T10:01:36;1.00;1.00;0.00
65360;PMS5003;51958;55.018;73.536;2023-09-08T10:04:38;5.75;4.00;0.25
65360;PMS5003;51958;55.018;73.536;2023-09-08T10:07:40;6.00;5.00;1.25
65360;PMS5003;51958;55.018;73.536;2023-09-08T10:10:42;5.00;5.00;1.00
65360;PMS5003;51958;55.018;73.536;2023-09-08T10:13:46;2.00;2.00;1.00
65360;PMS5003;51958;55.018;73.536;2023-09-08T10:16:51;2.00;2.00;0.00
65360;PMS5003;51958;55.018;73.536;2023-09-08T10:19:56;1.50;1.00;0.00
65360;PMS5003;51958;55.018;73.536;2023-09-08T10:26:03;0.00;0.00;0.00
65360;PMS5003;51958;55.018;73.536;2023-09-08T10:29:06;0.00;0.00;0.00
65360;PMS5003;51958;55.018;73.536;2023-09-08T10:32:08;0.00;0.00;0.00
65360;PMS5003;51958;55.018;73.536;2023-09-08T10:35:10;1.00;1.00;0.00
65360;PMS5003;51958;55.018;73.536;2023-09-08T10:38:24;0.00;0.00;0.00
65360;PMS5003;51958;55.018;73.536;2023-09-08T10:41:26;0.00;0.00;0.00
65360;PMS5003;51958;55.018;73.536;2023-09-08T10:44:28;0.50;0.50;0.00
65360;PMS5003;51958;55.018;73.536;2023-09-08T10:47:55;1.00;1.00;0.00
65360;PMS5003;51958;55.018;73.536;2023-09-08T10:50:57;1.00;1.00;0.00
65360;PMS5003;51958;55.018;73.536;2023-09-08T10:54:10;1.00;1.00;0.00
65360;PMS5003;51958;55.018;73.536;2023-09-08T10:57:20;4.00;2.75;0.00
65360;PMS5003;51958;55.018;73.536;2023-09-08T11:00:22;3.00;3.00;0.00
65360;PMS5003;51958;55.018;73.536;2023-09-08T11:03:28;8.00;7.00;2.33
65360;PMS5003;51958;55.018;73.536;2023-09-08T11:06:29;2.75;2.75;1.00
65360;PMS5003;51958;55.018;73.536;2023-09-08T11:09:35;6.00;5.50;1.00
65360;PMS5003;51958;55.018;73.536;2023-09-08T11:12:41;6.00;5.00;1.00
65360;PMS5003;51958;55.018;73.536;2023-09-08T11:15:42;5.25;5.25;1.00
65360;PMS5003;51958;55.018;73.536;2023-09-08T11:18:43;4.00;3.50;1.00
65360;PMS5003;51958;55.018;73.536;2023-09-08T11:21:45;1.67;1.00;0.00
65360;PMS5003;51958;55.018;73.536;2023-09-08T11:24:46;0.00;0.00;0.00
65360;PMS5003;51958;55.018;73.536;2023-09-08T11:27:47;1.00;0.00;0.00
65360;PMS5003;51958;55.018;73.536;2023-09-08T11:30:51;1.00;0.00;0.00
65360;PMS5003;51958;55.018;73.536;2023-09-08T11:33:54;1.00;1.00;0.00
65360;PMS5003;51958;55.018;73.536;2023-09-08T11:36:56;2.50;2.50;0.00
65360;PMS5003;51958;55.018;73.536;2023-09-08T11:39:57;2.00;2.00;0.00
65360;PMS5003;51958;55.018;73.536;2023-09-08T11:42:59;2.00;2.00;0.00
65360;PMS5003;51958;55.018;73.536;2023-09-08T11:46:00;2.00;2.00;0.00
65360;PMS5003;51958;55.018;73.536;2023-09-08T11:49:01;2.00;1.00;0.00
65360;PMS5003;51958;55.018;73.536;2023-09-08T11:52:04;2.00;2.00;0.00
65360;PMS5003;51958;55.018;73.536;2023-09-08T11:55:06;1.00;1.00;0.00
65360;PMS5003;51958;55.018;73.536;2023-09-08T11:58:10;1.00;1.00;0.00
65360;PMS5003;51958;55.018;73.536;2023-09-08T12:01:11;2.00;1.00;0.00
65360;PMS5003;51958;55.018;73.536;2023-09-08T12:04:17;1.00;0.00;0.00
65360;PMS5003;51958;55.018;73.536;2023-09-08T12:07:18;3.00;2.00;0.00
65360;PMS5003;51958;55.018;73.536;2023-09-08T12:10:20;4.00;4.00;0.00
65360;PMS5003;51958;55.018;73.536;2023-09-08T12:13:22;2.00;2.00;0.00
65360;PMS5003;51958;55.018;73.536;2023-09-08T12:16:38;1.00;1.00;0.00
65360;PMS5003;51958;55.018;73.536;2023-09-08T12:19:40;2.00;2.00;0.00
65360;PMS5003;51958;55.018;73.536;2023-09-08T12:22:48;2.50;2.50;0.00
65360;PMS5003;51958;55.018;73.536;2023-09-08T12:25:51;2.00;1.00;0.00
65360;PMS5003;51958;55.018;73.536;2023-09-08T12:28:52;2.00;1.00;0.00
65360;PMS5003;51958;55.018;73.536;2023-09-08T12:31:54;1.00;1.00;0.00
65360;PMS5003;51958;55.018;73.536;2023-09-08T12:34:55;2.00;1.00;0.00
65360;PMS5003;51958;55.018;73.536;2023-09-08T12:38:00;2.25;1.25;0.00
65360;PMS5003;51958;55.018;73.536;2023-09-08T12:41:02;1.00;1.00;0.00
65360;PMS5003;51958;55.018;73.536;2023-09-08T12:44:03;2.00;1.00;0.00
65360;PMS5003;51958;55.018;73.536;2023-09-08T12:47:04;2.00;2.00;0.00
65360;PMS5003;51958;55.018;73.536;2023-09-08T12:50:06;1.00;1.00;0.00
65360;PMS5003;51958;55.018;73.536;2023-09-08T12:53:08;1.00;0.00;0.00
65360;PMS5003;51958;55.018;73.536;2023-09-08T12:56:09;2.00;2.00;0.00
65360;PMS5003;51958;55.018;73.536;2023-09-08T12:59:10;2.00;2.00;0.00
65360;PMS5003;51958;55.018;73.536;2023-09-08T13:02:11;8.33;8.00;3.33
65360;PMS5003;51958;55.018;73.536;2023-09-08T13:05:13;14.75;13.75;7.00
65360;PMS5003;51958;55.018;73.536;2023-09-08T13:08:14;13.50;12.25;7.00
65360;PMS5003;51958;55.018;73.536;2023-09-08T13:11:16;19.50;18.25;9.75
65360;PMS5003;51958;55.018;73.536;2023-09-08T13:14:17;31.33;29.00;18.67
65360;PMS5003;51958;55.018;73.536;2023-09-08T13:17:18;41.00;34.00;21.00
65360;PMS5003;51958;55.018;73.536;2023-09-08T13:20:21;44.00;35.00;23.00
65360;PMS5003;51958;55.018;73.536;2023-09-08T13:23:22;39.00;34.00;22.00
65360;PMS5003;51958;55.018;73.536;2023-09-08T13:26:24;41.25;34.00;21.75
65360;PMS5003;51958;55.018;73.536;2023-09-08T13:29:25;52.25;40.75;25.50
65360;PMS5003;51958;55.018;73.536;2023-09-08T13:32:27;55.40;42.60;27.20
65360;PMS5003;51958;55.018;73.536;2023-09-08T13:35:29;69.25;53.50;34.00
65360;PMS5003;51958;55.018;73.536;2023-09-08T13:38:30;73.50;59.00;37.50
65360;PMS5003;51958;55.018;73.536;2023-09-08T13:44:48;89.33;77.33;43.33
65360;PMS5003;51958;55.018;73.536;2023-09-08T13:47:50;88.25;76.50;45.00
65360;PMS5003;51958;55.018;73.536;2023-09-08T13:50:51;70.00;55.25;35.00
65360;PMS5003;51958;55.018;73.536;2023-09-08T13:53:52;56.75;44.75;30.00
65360;PMS5003;51958;55.018;73.536;2023-09-08T13:56:57;43.50;36.75;24.75
65360;PMS5003;51958;55.018;73.536;2023-09-08T13:59:59;34.50;31.00;20.00
65360;PMS5003;51958;55.018;73.536;2023-09-08T14:03:00;42.33;36.00;24.33
65360;PMS5003;51958;55.018;73.536;2023-09-08T14:06:01;74.50;67.00;47.50
65360;PMS5003;51958;55.018;73.536;2023-09-08T14:09:02;69.50;59.25;43.50
65360;PMS5003;51958;55.018;73.536;2023-09-08T14:12:04;59.50;47.75;33.00
65360;PMS5003;51958;55.018;73.536;2023-09-08T14:15:05;87.00;79.67;57.00
65360;PMS5003;51958;55.018;73.536;2023-09-08T14:18:07;113.75;105.00;76.50
65360;PMS5003;51958;55.018;73.536;2023-09-08T14:21:13;81.00;75.50;57.50
65360;PMS5003;51958;55.018;73.536;2023-09-08T14:24:15;49.67;41.33;29.00
65360;PMS5003;51958;55.018;73.536;2023-09-08T14:27:15;24.00;21.00;14.33
65360;PMS5003;51958;55.018;73.536;2023-09-08T14:30:17;12.50;12.50;6.25
65360;PMS5003;51958;55.018;73.536;2023-09-08T14:33:18;9.00;9.00;5.00
65360;PMS5003;51958;55.018;73.536;2023-09-08T14:36:19;13.25;12.50;6.75
65360;PMS5003;51958;55.018;73.536;2023-09-08T14:39:20;13.00;10.75;6.00
65360;PMS5003;51958;55.018;73.536;2023-09-08T14:42:21;11.00;9.00;5.00
65360;PMS5003;51958;55.018;73.536;2023-09-08T14:45:22;11.00;8.50;6.00
65360;PMS5003;51958;55.018;73.536;2023-09-08T14:48:23;9.00;8.00;6.00
65360;PMS5003;51958;55.018;73.536;2023-09-08T14:51:25;9.25;8.75;6.00
65360;PMS5003;51958;55.018;73.536;2023-09-08T14:54:26;21.33;20.00;13.67
65360;PMS5003;51958;55.018;73.536;2023-09-08T14:57:29;16.25;16.00;9.25
65360;PMS5003;51958;55.018;73.536;2023-09-08T15:00:30;13.75;13.00;7.00
65360;PMS5003;51958;55.018;73.536;2023-09-08T15:03:31;15.00;14.00;6.00
65360;PMS5003;51958;55.018;73.536;2023-09-08T15:06:34;14.00;11.00;6.00
65360;PMS5003;51958;55.018;73.536;2023-09-08T15:09:35;12.50;10.75;5.00
65360;PMS5003;51958;55.018;73.536;2023-09-08T15:12:37;12.50;10.75;6.00
65360;PMS5003;51958;55.018;73.536;2023-09-08T15:15:38;17.33;15.67;9.33
65360;PMS5003;51958;55.018;73.536;2023-09-08T15:18:39;26.00;23.00;13.33
65360;PMS5003;51958;55.018;73.536;2023-09-08T15:21:40;27.00;26.33;15.67
65360;PMS5003;51958;55.018;73.536;2023-09-08T15:24:41;37.25;30.75;20.50
65360;PMS5003;51958;55.018;73.536;2023-09-08T15:27:42;31.00;27.33;18.00
65360;PMS5003;51958;55.018;73.536;2023-09-08T15:30:50;27.00;23.33;17.00
65360;PMS5003;51958;55.018;73.536;2023-09-08T15:33:52;23.00;20.00;13.00
65360;PMS5003;51958;55.018;73.536;2023-09-08T15:36:53;25.33;24.67;14.67
65360;PMS5003;51958;55.018;73.536;2023-09-08T15:39:54;29.33;26.00;16.00
65360;PMS5003;51958;55.018;73.536;2023-09-08T15:42:55;27.67;24.00;16.00
65360;PMS5003;51958;55.018;73.536;2023-09-08T15:45:56;19.33;18.67;11.00
65360;PMS5003;51958;55.018;73.536;2023-09-08T15:48:57;19.33;17.33;7.67
65360;PMS5003;51958;55.018;73.536;2023-09-08T15:51:58;17.00;16.00;6.00
65360;PMS5003;51958;55.018;73.536;2023-09-08T15:55:01;16.00;14.00;6.00
65360;PMS5003;51958;55.018;73.536;2023-09-08T15:58:05;16.00;15.00;6.00
65360;PMS5003;51958;55.018;73.536;2023-09-08T16:01:06;18.33;16.33;7.67
65360;PMS5003;51958;55.018;73.536;2023-09-08T16:04:07;25.33;22.33;14.67
65360;PMS5003;51958;55.018;73.536;2023-09-08T16:07:11;25.00;23.67;17.00
65360;PMS5003;51958;55.018;73.536;2023-09-08T16:10:12;32.00;28.67;18.00
65360;PMS5003;51958;55.018;73.536;2023-09-08T16:13:14;42.00;34.00;23.00
65360;PMS5003;51958;55.018;73.536;2023-09-08T16:16:15;40.67;33.67;21.67
65360;PMS5003;51958;55.018;73.536;2023-09-08T16:19:17;44.67;35.67;24.00
65360;PMS5003;51958;55.018;73.536;2023-09-08T16:22:18;47.33;38.00;25.00
65360;PMS5003;51958;55.018;73.536;2023-09-08T16:25:20;64.33;51.33;34.33
65360;PMS5003;51958;55.018;73.536;2023-09-08T16:28:21;70.67;64.33;41.33
65360;PMS5003;51958;55.018;73.536;2023-09-08T16:31:25;72.00;65.00;43.00
65360;PMS5003;51958;55.018;73.536;2023-09-08T16:34:26;65.00;53.33;35.33
65360;PMS5003;51958;55.018;73.536;2023-09-08T16:37:28;54.33;43.00;29.00
65360;PMS5003;51958;55.018;73.536;2023-09-08T16:40:29;50.00;39.00;26.00
65360;PMS5003;51958;55.018;73.536;2023-09-08T16:43:31;49.00;39.00;25.33
65360;PMS5003;51958;55.018;73.536;2023-09-08T16:46:32;49.33;40.00;26.33
65360;PMS5003;51958;55.018;73.536;2023-09-08T16:49:33;56.00;45.00;29.67
65360;PMS5003;51958;55.018;73.536;2023-09-08T16:52:35;55.33;43.00;28.67
65360;PMS5003;51958;55.018;73.536;2023-09-08T16:55:36;49.67;39.00;25.33
65360;PMS5003;51958;55.018;73.536;2023-09-08T16:58:38;43.00;35.00;24.00
65360;PMS5003;51958;55.018;73.536;2023-09-08T17:01:39;40.67;34.33;23.00
65360;PMS5003;51958;55.018;73.536;2023-09-08T17:04:40;42.50;35.50;25.00
65360;PMS5003;51958;55.018;73.536;2023-09-08T17:07:45;43.33;35.00;24.00
65360;PMS5003;51958;55.018;73.536;2023-09-08T17:10:46;43.67;35.00;23.00
65360;PMS5003;51958;55.018;73.536;2023-09-08T17:13:48;42.00;33.67;23.00
65360;PMS5003;51958;55.018;73.536;2023-09-08T17:16:49;40.33;33.00;21.00
65360;PMS5003;51958;55.018;73.536;2023-09-08T17:19:50;40.33;34.00;23.00
65360;PMS5003;51958;55.018;73.536;2023-09-08T17:22:52;41.33;33.33;23.00
65360;PMS5003;51958;55.018;73.536;2023-09-08T17:25:54;39.00;32.33;23.00